sensor_id;sensor_type;location;lat;lon;timestamp;P1;durP1;ratioP1;P2;durP2;ratioP2
4290;SDS011;2159;50.906;7.152;2023-04-03T00:00:33;3.30;;;2.53;;
4290;SDS011;2159;50.906;7.152;2023-04-03T00:03:01;2.57;;;2.33;;
4290;SDS011;2159;50.906;7.152;2023-04-03T00:05:30;5.60;;;3.97;;
4290;SDS011;2159;50.906;7.152;2023-04-03T00:07:58;3.20;;;2.50;;
4290;SDS011;2159;50.906;7.152;2023-04-03T00:10:25;2.70;;;2.50;;
4290;SDS011;2159;50.906;7.152;2023-04-03T00:12:53;3.70;;;2.43;;
4290;SDS011;2159;50.906;7.152;2023-04-03T00:15:20;2.50;;;2.40;;
4290;SDS011;2159;50.906;7.152;2023-04-03T00:17:48;5.17;;;3.20;;
4290;SDS011;2159;50.906;7.152;2023-04-03T00:20:15;6.33;;;3.93;;
4290;SDS011;2159;50.906;7.152;2023-04-03T00:22:44;2.90;;;2.60;;
4290;SDS011;2159;50.906;7.152;2023-04-03T00:25:11;10.03;;;5.50;;
4290;SDS011;2159;50.906;7.152;2023-04-03T00:27:39;5.43;;;3.03;;
4290;SDS011;2159;50.906;7.152;2023-04-03T00:30:08;5.80;;;4.10;;
4290;SDS011;2159;50.906;7.152;2023-04-03T00:32:37;3.03;;;2.60;;
4290;SDS011;2159;50.906;7.152;2023-04-03T00:35:05;3.00;;;2.70;;
4290;SDS011;2159;50.906;7.152;2023-04-03T00:37:32;5.90;;;2.67;;
4290;SDS011;2159;50.906;7.152;2023-04-03T00:40:02;4.37;;;2.80;;
4290;SDS011;2159;50.906;7.152;2023-04-03T00:42:30;4.80;;;3.20;;
4290;SDS011;2159;50.906;7.152;2023-04-03T00:47:44;2.73;;;2.53;;
4290;SDS011;2159;50.906;7.152;2023-04-03T00:50:12;2.80;;;2.60;;
4290;SDS011;2159;50.906;7.152;2023-04-03T00:52:40;6.30;;;4.27;;
4290;SDS011;2159;50.906;7.152;2023-04-03T00:55:09;4.13;;;3.50;;
4290;SDS011;2159;50.906;7.152;2023-04-03T00:57:37;4.60;;;3.00;;
4290;SDS011;2159;50.906;7.152;2023-04-03T01:00:06;3.87;;;2.70;;
4290;SDS011;2159;50.906;7.152;2023-04-03T01:02:35;4.90;;;3.27;;
4290;SDS011;2159;50.906;7.152;2023-04-03T01:05:03;3.57;;;3.23;;
4290;SDS011;2159;50.906;7.152;2023-04-03T01:07:32;4.13;;;2.93;;
4290;SDS011;2159;50.906;7.152;2023-04-03T01:10:02;9.07;;;3.60;;
4290;SDS011;2159;50.906;7.152;2023-04-03T01:12:33;3.90;;;2.70;;
4290;SDS011;2159;50.906;7.152;2023-04-03T01:15:04;2.80;;;2.60;;
4290;SDS011;2159;50.906;7.152;2023-04-03T01:17:32;3.43;;;2.60;;
4290;SDS011;2159;50.906;7.152;2023-04-03T01:22:44;5.70;;;2.50;;
4290;SDS011;2159;50.906;7.152;2023-04-03T01:25:15;3.40;;;3.10;;
4290;SDS011;2159;50.906;7.152;2023-04-03T01:27:44;3.90;;;2.90;;
4290;SDS011;2159;50.906;7.152;2023-04-03T01:30:11;3.17;;;2.83;;
4290;SDS011;2159;50.906;7.152;2023-04-03T01:32:42;3.07;;;2.87;;
4290;SDS011;2159;50.906;7.152;2023-04-03T01:35:09;3.03;;;2.70;;
4290;SDS011;2159;50.906;7.152;2023-04-03T01:37:37;4.20;;;2.80;;
4290;SDS011;2159;50.906;7.152;2023-04-03T01:40:05;4.90;;;2.90;;
4290;SDS011;2159;50.906;7.152;2023-04-03T01:42:33;2.90;;;2.63;;
4290;SDS011;2159;50.906;7.152;2023-04-03T01:45:00;3.70;;;2.83;;
4290;SDS011;2159;50.906;7.152;2023-04-03T01:47:28;3.30;;;2.73;;
4290;SDS011;2159;50.906;7.152;2023-04-03T01:49:57;4.30;;;3.03;;
4290;SDS011;2159;50.906;7.152;2023-04-03T01:52:24;2.80;;;2.60;;
4290;SDS011;2159;50.906;7.152;2023-04-03T01:54:52;2.90;;;2.70;;
4290;SDS011;2159;50.906;7.152;2023-04-03T01:57:20;4.53;;;2.80;;
4290;SDS011;2159;50.906;7.152;2023-04-03T01:59:47;3.23;;;2.70;;
4290;SDS011;2159;50.906;7.152;2023-04-03T02:02:15;3.10;;;2.90;;
4290;SDS011;2159;50.906;7.152;2023-04-03T02:04:43;3.80;;;2.80;;
4290;SDS011;2159;50.906;7.152;2023-04-03T02:07:11;3.93;;;3.10;;
4290;SDS011;2159;50.906;7.152;2023-04-03T02:09:39;3.10;;;2.50;;
4290;SDS011;2159;50.906;7.152;2023-04-03T02:12:07;4.63;;;3.20;;
4290;SDS011;2159;50.906;7.152;2023-04-03T02:14:34;7.23;;;3.10;;
4290;SDS011;2159;50.906;7.152;2023-04-03T02:17:02;4.00;;;3.10;;
4290;SDS011;2159;50.906;7.152;2023-04-03T02:19:31;2.63;;;2.50;;
4290;SDS011;2159;50.906;7.152;2023-04-03T02:21:59;3.10;;;2.80;;
4290;SDS011;2159;50.906;7.152;2023-04-03T02:24:27;3.10;;;2.90;;
4290;SDS011;2159;50.906;7.152;2023-04-03T02:26:55;3.00;;;2.80;;
4290;SDS011;2159;50.906;7.152;2023-04-03T02:29:22;4.00;;;3.20;;
4290;SDS011;2159;50.906;7.152;2023-04-03T02:31:50;3.07;;;2.87;;
4290;SDS011;2159;50.906;7.152;2023-04-03T02:34:17;3.20;;;2.90;;
4290;SDS011;2159;50.906;7.152;2023-04-03T02:36:45;3.10;;;2.90;;
4290;SDS011;2159;50.906;7.152;2023-04-03T02:39:13;4.07;;;3.30;;
4290;SDS011;2159;50.906;7.152;2023-04-03T02:41:42;3.60;;;2.90;;
4290;SDS011;2159;50.906;7.152;2023-04-03T02:44:10;4.27;;;3.43;;
4290;SDS011;2159;50.906;7.152;2023-04-03T02:46:38;4.60;;;3.17;;
4290;SDS011;2159;50.906;7.152;2023-04-03T02:49:06;3.23;;;3.03;;
4290;SDS011;2159;50.906;7.152;2023-04-03T02:51:33;3.20;;;3.00;;
4290;SDS011;2159;50.906;7.152;2023-04-03T02:54:01;3.57;;;3.27;;
4290;SDS011;2159;50.906;7.152;2023-04-03T02:56:28;4.43;;;3.20;;
4290;SDS011;2159;50.906;7.152;2023-04-03T02:58:57;3.70;;;3.40;;
4290;SDS011;2159;50.906;7.152;2023-04-03T03:01:25;3.30;;;3.10;;
4290;SDS011;2159;50.906;7.152;2023-04-03T03:03:54;5.93;;;3.10;;
4290;SDS011;2159;50.906;7.152;2023-04-03T03:06:22;4.37;;;3.27;;
4290;SDS011;2159;50.906;7.152;2023-04-03T03:08:49;3.43;;;3.13;;
4290;SDS011;2159;50.906;7.152;2023-04-03T03:11:17;4.47;;;3.30;;
4290;SDS011;2159;50.906;7.152;2023-04-03T03:13:45;4.07;;;3.67;;
4290;SDS011;2159;50.906;7.152;2023-04-03T03:16:14;3.40;;;3.10;;
4290;SDS011;2159;50.906;7.152;2023-04-03T03:18:41;3.87;;;3.07;;
4290;SDS011;2159;50.906;7.152;2023-04-03T03:21:09;4.10;;;3.70;;
4290;SDS011;2159;50.906;7.152;2023-04-03T03:23:36;4.57;;;2.97;;
4290;SDS011;2159;50.906;7.152;2023-04-03T03:26:05;4.93;;;3.07;;
4290;SDS011;2159;50.906;7.152;2023-04-03T03:28:33;4.50;;;3.20;;
4290;SDS011;2159;50.906;7.152;2023-04-03T03:31:00;3.30;;;3.00;;
4290;SDS011;2159;50.906;7.152;2023-04-03T03:33:29;3.50;;;3.20;;
4290;SDS011;2159;50.906;7.152;2023-04-03T03:35:57;3.80;;;3.37;;
4290;SDS011;2159;50.906;7.152;2023-04-03T03:38:24;4.40;;;3.50;;
4290;SDS011;2159;50.906;7.152;2023-04-03T03:40:52;3.67;;;3.37;;
4290;SDS011;2159;50.906;7.152;2023-04-03T03:43:19;3.67;;;3.37;;
4290;SDS011;2159;50.906;7.152;2023-04-03T03:45:49;3.30;;;3.10;;
4290;SDS011;2159;50.906;7.152;2023-04-03T03:48:17;3.50;;;3.20;;
4290;SDS011;2159;50.906;7.152;2023-04-03T03:50:46;4.33;;;3.20;;
4290;SDS011;2159;50.906;7.152;2023-04-03T03:53:14;3.70;;;3.03;;
4290;SDS011;2159;50.906;7.152;2023-04-03T03:55:41;3.43;;;3.20;;
4290;SDS011;2159;50.906;7.152;2023-04-03T03:58:09;3.37;;;3.17;;
4290;SDS011;2159;50.906;7.152;2023-04-03T04:00:36;3.50;;;3.20;;
4290;SDS011;2159;50.906;7.152;2023-04-03T04:03:04;3.40;;;2.90;;
4290;SDS011;2159;50.906;7.152;2023-04-03T04:05:31;3.40;;;3.10;;
4290;SDS011;2159;50.906;7.152;2023-04-03T04:08:01;3.17;;;2.97;;
4290;SDS011;2159;50.906;7.152;2023-04-03T04:10:28;3.37;;;3.07;;
4290;SDS011;2159;50.906;7.152;2023-04-03T04:12:56;3.37;;;2.87;;
4290;SDS011;2159;50.906;7.152;2023-04-03T04:15:24;3.23;;;2.93;;
4290;SDS011;2159;50.906;7.152;2023-04-03T04:17:52;3.23;;;2.93;;
4290;SDS011;2159;50.906;7.152;2023-04-03T04:20:19;3.47;;;3.17;;
4290;SDS011;2159;50.906;7.152;2023-04-03T04:22:47;4.13;;;3.20;;
4290;SDS011;2159;50.906;7.152;2023-04-03T04:25:16;2.83;;;2.70;;
4290;SDS011;2159;50.906;7.152;2023-04-03T04:27:43;3.30;;;3.13;;
4290;SDS011;2159;50.906;7.152;2023-04-03T04:30:11;2.97;;;2.63;;
4290;SDS011;2159;50.906;7.152;2023-04-03T04:32:38;3.27;;;2.97;;
4290;SDS011;2159;50.906;7.152;2023-04-03T04:35:06;4.03;;;3.00;;
4290;SDS011;2159;50.906;7.152;2023-04-03T04:37:34;2.97;;;2.73;;
4290;SDS011;2159;50.906;7.152;2023-04-03T04:40:01;4.07;;;2.90;;
4290;SDS011;2159;50.906;7.152;2023-04-03T04:42:30;3.50;;;2.80;;
4290;SDS011;2159;50.906;7.152;2023-04-03T04:44:57;4.90;;;3.00;;
4290;SDS011;2159;50.906;7.152;2023-04-03T04:47:25;2.90;;;2.63;;
4290;SDS011;2159;50.906;7.152;2023-04-03T04:49:53;3.10;;;2.90;;
4290;SDS011;2159;50.906;7.152;2023-04-03T04:52:20;3.13;;;2.83;;
4290;SDS011;2159;50.906;7.152;2023-04-03T04:54:47;4.53;;;2.57;;
4290;SDS011;2159;50.906;7.152;2023-04-03T04:57:15;5.93;;;2.73;;
4290;SDS011;2159;50.906;7.152;2023-04-03T04:59:44;3.33;;;2.97;;
4290;SDS011;2159;50.906;7.152;2023-04-03T05:02:12;2.53;;;2.33;;
4290;SDS011;2159;50.906;7.152;2023-04-03T05:04:39;3.13;;;2.83;;
4290;SDS011;2159;50.906;7.152;2023-04-03T05:07:07;3.20;;;2.90;;
4290;SDS011;2159;50.906;7.152;2023-04-03T05:09:34;3.10;;;2.60;;
4290;SDS011;2159;50.906;7.152;2023-04-03T05:12:02;2.67;;;2.50;;
4290;SDS011;2159;50.906;7.152;2023-04-03T05:14:30;3.07;;;2.50;;
4290;SDS011;2159;50.906;7.152;2023-04-03T05:16:59;3.47;;;2.50;;
4290;SDS011;2159;50.906;7.152;2023-04-03T05:19:26;2.60;;;2.40;;
4290;SDS011;2159;50.906;7.152;2023-04-03T05:21:54;2.40;;;2.20;;
4290;SDS011;2159;50.906;7.152;2023-04-03T05:24:22;3.80;;;2.97;;
4290;SDS011;2159;50.906;7.152;2023-04-03T05:26:49;2.37;;;2.17;;
4290;SDS011;2159;50.906;7.152;2023-04-03T05:29:16;2.37;;;2.27;;
4290;SDS011;2159;50.906;7.152;2023-04-03T05:31:44;2.40;;;2.20;;
4290;SDS011;2159;50.906;7.152;2023-04-03T05:34:13;3.53;;;2.60;;
4290;SDS011;2159;50.906;7.152;2023-04-03T05:36:40;2.43;;;2.30;;
4290;SDS011;2159;50.906;7.152;2023-04-03T05:39:09;2.30;;;2.07;;
4290;SDS011;2159;50.906;7.152;2023-04-03T05:41:36;2.90;;;2.33;;
4290;SDS011;2159;50.906;7.152;2023-04-03T05:44:04;2.20;;;2.07;;
4290;SDS011;2159;50.906;7.152;2023-04-03T05:46:31;3.30;;;2.20;;
4290;SDS011;2159;50.906;7.152;2023-04-03T05:48:59;2.87;;;2.60;;
4290;SDS011;2159;50.906;7.152;2023-04-03T05:51:33;2.63;;;2.43;;
4290;SDS011;2159;50.906;7.152;2023-04-03T05:54:03;3.67;;;2.80;;
4290;SDS011;2159;50.906;7.152;2023-04-03T05:56:33;3.07;;;2.30;;
4290;SDS011;2159;50.906;7.152;2023-04-03T05:59:00;3.60;;;2.43;;
4290;SDS011;2159;50.906;7.152;2023-04-03T06:01:28;4.13;;;2.30;;
4290;SDS011;2159;50.906;7.152;2023-04-03T06:03:55;2.63;;;2.10;;
4290;SDS011;2159;50.906;7.152;2023-04-03T06:06:25;2.67;;;2.03;;
4290;SDS011;2159;50.906;7.152;2023-04-03T06:08:54;3.60;;;2.20;;
4290;SDS011;2159;50.906;7.152;2023-04-03T06:11:21;2.07;;;1.87;;
4290;SDS011;2159;50.906;7.152;2023-04-03T06:13:48;2.67;;;1.87;;
4290;SDS011;2159;50.906;7.152;2023-04-03T06:16:16;4.30;;;1.90;;
4290;SDS011;2159;50.906;7.152;2023-04-03T06:18:44;1.60;;;1.50;;
4290;SDS011;2159;50.906;7.152;2023-04-03T06:21:11;1.80;;;1.70;;
4290;SDS011;2159;50.906;7.152;2023-04-03T06:23:39;3.90;;;1.87;;
4290;SDS011;2159;50.906;7.152;2023-04-03T06:26:09;2.97;;;2.10;;
4290;SDS011;2159;50.906;7.152;2023-04-03T06:28:36;3.13;;;2.20;;
4290;SDS011;2159;50.906;7.152;2023-04-03T06:31:04;2.20;;;1.90;;
4290;SDS011;2159;50.906;7.152;2023-04-03T06:33:31;3.20;;;2.00;;
4290;SDS011;2159;50.906;7.152;2023-04-03T06:35:59;4.60;;;2.20;;
4290;SDS011;2159;50.906;7.152;2023-04-03T06:38:27;1.90;;;1.80;;
4290;SDS011;2159;50.906;7.152;2023-04-03T06:40:55;2.13;;;1.93;;
4290;SDS011;2159;50.906;7.152;2023-04-03T06:43:24;1.80;;;1.70;;
4290;SDS011;2159;50.906;7.152;2023-04-03T06:45:52;2.13;;;1.80;;
4290;SDS011;2159;50.906;7.152;2023-04-03T06:48:19;3.53;;;1.90;;
4290;SDS011;2159;50.906;7.152;2023-04-03T06:50:48;4.10;;;1.87;;
4290;SDS011;2159;50.906;7.152;2023-04-03T06:53:15;2.83;;;1.63;;
4290;SDS011;2159;50.906;7.152;2023-04-03T06:55:43;3.10;;;1.70;;
4290;SDS011;2159;50.906;7.152;2023-04-03T06:58:11;2.17;;;1.90;;
4290;SDS011;2159;50.906;7.152;2023-04-03T07:00:43;2.67;;;1.43;;
4290;SDS011;2159;50.906;7.152;2023-04-03T07:03:10;3.00;;;1.40;;
4290;SDS011;2159;50.906;7.152;2023-04-03T07:05:38;1.50;;;1.40;;
4290;SDS011;2159;50.906;7.152;2023-04-03T07:08:06;3.30;;;1.90;;
4290;SDS011;2159;50.906;7.152;2023-04-03T07:10:33;1.77;;;1.47;;
4290;SDS011;2159;50.906;7.152;2023-04-03T07:13:00;1.80;;;1.70;;
4290;SDS011;2159;50.906;7.152;2023-04-03T07:15:28;3.83;;;1.90;;
4290;SDS011;2159;50.906;7.152;2023-04-03T07:17:57;1.83;;;1.50;;
4290;SDS011;2159;50.906;7.152;2023-04-03T07:20:25;5.17;;;1.70;;
4290;SDS011;2159;50.906;7.152;2023-04-03T07:22:52;3.63;;;1.87;;
4290;SDS011;2159;50.906;7.152;2023-04-03T07:25:20;3.13;;;1.50;;
4290;SDS011;2159;50.906;7.152;2023-04-03T07:27:47;4.30;;;1.70;;
4290;SDS011;2159;50.906;7.152;2023-04-03T07:30:15;1.53;;;1.40;;
4290;SDS011;2159;50.906;7.152;2023-04-03T07:32:42;1.67;;;1.20;;
4290;SDS011;2159;50.906;7.152;2023-04-03T08:37:21;2.60;;;1.57;;
4290;SDS011;2159;50.906;7.152;2023-04-03T08:39:49;3.23;;;1.60;;
4290;SDS011;2159;50.906;7.152;2023-04-03T08:42:19;1.37;;;1.27;;
4290;SDS011;2159;50.906;7.152;2023-04-03T08:44:47;2.60;;;1.43;;
4290;SDS011;2159;50.906;7.152;2023-04-03T09:01:40;1.92;;;1.30;;
4290;SDS011;2159;50.906;7.152;2023-04-03T09:04:09;1.53;;;1.40;;
4290;SDS011;2159;50.906;7.152;2023-04-03T09:06:38;2.47;;;1.47;;
4290;SDS011;2159;50.906;7.152;2023-04-03T09:09:07;1.60;;;1.20;;
4290;SDS011;2159;50.906;7.152;2023-04-03T09:11:42;1.10;;;1.00;;
4290;SDS011;2159;50.906;7.152;2023-04-03T09:14:13;1.73;;;1.30;;
4290;SDS011;2159;50.906;7.152;2023-04-03T09:16:46;1.20;;;1.10;;
4290;SDS011;2159;50.906;7.152;2023-04-03T09:19:17;1.40;;;1.30;;
4290;SDS011;2159;50.906;7.152;2023-04-03T09:21:48;1.83;;;1.30;;
4290;SDS011;2159;50.906;7.152;2023-04-03T09:24:15;1.30;;;1.20;;
4290;SDS011;2159;50.906;7.152;2023-04-03T09:26:44;1.40;;;1.03;;
4290;SDS011;2159;50.906;7.152;2023-04-03T09:29:14;2.90;;;1.73;;
4290;SDS011;2159;50.906;7.152;2023-04-03T09:31:44;2.90;;;1.20;;
4290;SDS011;2159;50.906;7.152;2023-04-03T09:34:15;3.23;;;1.33;;
4290;SDS011;2159;50.906;7.152;2023-04-03T09:36:46;1.33;;;1.20;;
4290;SDS011;2159;50.906;7.152;2023-04-03T09:39:14;1.53;;;1.23;;
4290;SDS011;2159;50.906;7.152;2023-04-03T09:41:42;1.43;;;1.33;;
4290;SDS011;2159;50.906;7.152;2023-04-03T09:44:22;1.33;;;1.23;;
4290;SDS011;2159;50.906;7.152;2023-04-03T09:46:51;4.30;;;1.40;;
4290;SDS011;2159;50.906;7.152;2023-04-03T09:49:19;3.13;;;2.57;;
4290;SDS011;2159;50.906;7.152;2023-04-03T09:51:47;1.60;;;1.30;;
4290;SDS011;2159;50.906;7.152;2023-04-03T09:54:32;1.03;;;0.90;;
4290;SDS011;2159;50.906;7.152;2023-04-03T09:57:01;1.50;;;1.40;;
4290;SDS011;2159;50.906;7.152;2023-04-03T09:59:29;1.27;;;1.17;;
4290;SDS011;2159;50.906;7.152;2023-04-03T10:02:00;3.63;;;1.20;;
4290;SDS011;2159;50.906;7.152;2023-04-03T10:04:37;1.10;;;1.00;;
4290;SDS011;2159;50.906;7.152;2023-04-03T10:07:25;1.70;;;1.13;;
4290;SDS011;2159;50.906;7.152;2023-04-03T10:09:54;1.10;;;0.90;;
4290;SDS011;2159;50.906;7.152;2023-04-03T10:12:22;0.80;;;0.80;;
4290;SDS011;2159;50.906;7.152;2023-04-03T10:14:53;1.87;;;0.80;;
4290;SDS011;2159;50.906;7.152;2023-04-03T10:17:24;1.03;;;1.03;;
4290;SDS011;2159;50.906;7.152;2023-04-03T10:19:55;0.97;;;0.90;;
4290;SDS011;2159;50.906;7.152;2023-04-03T10:22:26;1.67;;;0.90;;
4290;SDS011;2159;50.906;7.152;2023-04-03T10:24:59;1.20;;;1.10;;
4290;SDS011;2159;50.906;7.152;2023-04-03T10:27:32;1.10;;;1.00;;
4290;SDS011;2159;50.906;7.152;2023-04-03T10:30:04;2.63;;;0.90;;
4290;SDS011;2159;50.906;7.152;2023-04-03T10:32:44;2.10;;;1.10;;
4290;SDS011;2159;50.906;7.152;2023-04-03T10:35:18;2.90;;;1.00;;
4290;SDS011;2159;50.906;7.152;2023-04-03T10:37:50;1.40;;;0.90;;
4290;SDS011;2159;50.906;7.152;2023-04-03T10:40:25;1.00;;;1.00;;
4290;SDS011;2159;50.906;7.152;2023-04-03T10:42:58;0.90;;;0.90;;
4290;SDS011;2159;50.906;7.152;2023-04-03T10:45:30;2.20;;;1.80;;
4290;SDS011;2159;50.906;7.152;2023-04-03T10:48:02;1.17;;;0.93;;
4290;SDS011;2159;50.906;7.152;2023-04-03T10:50:35;1.27;;;1.00;;
4290;SDS011;2159;50.906;7.152;2023-04-03T10:53:07;1.17;;;0.70;;
4290;SDS011;2159;50.906;7.152;2023-04-03T10:55:36;5.93;;;1.47;;
4290;SDS011;2159;50.906;7.152;2023-04-03T10:58:05;2.93;;;0.97;;
4290;SDS011;2159;50.906;7.152;2023-04-03T11:00:35;0.80;;;0.80;;
4290;SDS011;2159;50.906;7.152;2023-04-03T11:03:07;2.10;;;0.90;;
4290;SDS011;2159;50.906;7.152;2023-04-03T11:05:39;1.33;;;0.80;;
4290;SDS011;2159;50.906;7.152;2023-04-03T11:08:10;1.10;;;1.10;;
4290;SDS011;2159;50.906;7.152;2023-04-03T11:10:40;1.00;;;0.80;;
4290;SDS011;2159;50.906;7.152;2023-04-03T11:13:10;2.37;;;0.90;;
4290;SDS011;2159;50.906;7.152;2023-04-03T11:15:39;0.83;;;0.83;;
4290;SDS011;2159;50.906;7.152;2023-04-03T11:18:09;1.13;;;1.03;;
4290;SDS011;2159;50.906;7.152;2023-04-03T11:20:38;1.60;;;1.50;;
4290;SDS011;2159;50.906;7.152;2023-04-03T11:23:10;1.60;;;1.20;;
4290;SDS011;2159;50.906;7.152;2023-04-03T11:25:40;1.00;;;1.00;;
4290;SDS011;2159;50.906;7.152;2023-04-03T11:28:11;1.20;;;1.00;;
4290;SDS011;2159;50.906;7.152;2023-04-03T11:30:41;0.90;;;0.90;;
4290;SDS011;2159;50.906;7.152;2023-04-03T11:33:27;2.83;;;1.00;;
4290;SDS011;2159;50.906;7.152;2023-04-03T11:35:56;2.33;;;1.00;;
4290;SDS011;2159;50.906;7.152;2023-04-03T11:38:25;1.00;;;0.90;;
4290;SDS011;2159;50.906;7.152;2023-04-03T11:40:55;0.70;;;0.70;;
4290;SDS011;2159;50.906;7.152;2023-04-03T11:43:25;0.90;;;0.90;;
4290;SDS011;2159;50.906;7.152;2023-04-03T11:45:53;0.93;;;0.83;;
4290;SDS011;2159;50.906;7.152;2023-04-03T11:53:52;1.00;;;1.00;;
4290;SDS011;2159;50.906;7.152;2023-04-03T11:56:31;1.10;;;1.10;;
4290;SDS011;2159;50.906;7.152;2023-04-03T11:59:15;1.20;;;0.93;;
4290;SDS011;2159;50.906;7.152;2023-04-03T12:01:45;1.20;;;1.10;;
4290;SDS011;2159;50.906;7.152;2023-04-03T12:04:13;0.83;;;0.80;;
4290;SDS011;2159;50.906;7.152;2023-04-03T12:12:31;1.57;;;1.40;;
4290;SDS011;2159;50.906;7.152;2023-04-03T12:17:44;0.77;;;0.77;;
4290;SDS011;2159;50.906;7.152;2023-04-03T12:23:08;0.80;;;0.80;;
4290;SDS011;2159;50.906;7.152;2023-04-03T12:25:50;0.80;;;0.80;;
4290;SDS011;2159;50.906;7.152;2023-04-03T12:28:22;1.13;;;1.00;;
4290;SDS011;2159;50.906;7.152;2023-04-03T12:30:51;0.90;;;0.90;;
4290;SDS011;2159;50.906;7.152;2023-04-03T12:33:20;3.13;;;1.10;;
4290;SDS011;2159;50.906;7.152;2023-04-03T12:35:55;0.97;;;0.97;;
4290;SDS011;2159;50.906;7.152;2023-04-03T12:38:37;1.93;;;1.37;;
4290;SDS011;2159;50.906;7.152;2023-04-03T12:41:15;1.20;;;1.10;;
4290;SDS011;2159;50.906;7.152;2023-04-03T12:43:49;1.10;;;1.00;;
4290;SDS011;2159;50.906;7.152;2023-04-03T12:46:18;0.87;;;0.87;;
4290;SDS011;2159;50.906;7.152;2023-04-03T12:48:47;1.20;;;1.10;;
4290;SDS011;2159;50.906;7.152;2023-04-03T12:51:17;1.07;;;1.00;;
4290;SDS011;2159;50.906;7.152;2023-04-03T12:53:46;1.10;;;1.00;;
4290;SDS011;2159;50.906;7.152;2023-04-03T12:56:21;1.20;;;1.00;;
4290;SDS011;2159;50.906;7.152;2023-04-03T12:58:51;1.00;;;1.00;;
4290;SDS011;2159;50.906;7.152;2023-04-03T13:01:20;1.73;;;0.90;;
4290;SDS011;2159;50.906;7.152;2023-04-03T13:03:49;1.27;;;1.00;;
4290;SDS011;2159;50.906;7.152;2023-04-03T13:06:19;1.43;;;0.97;;
4290;SDS011;2159;50.906;7.152;2023-04-03T13:08:49;1.00;;;1.00;;
4290;SDS011;2159;50.906;7.152;2023-04-03T13:11:16;2.00;;;1.20;;
4290;SDS011;2159;50.906;7.152;2023-04-03T13:13:55;1.63;;;1.07;;
4290;SDS011;2159;50.906;7.152;2023-04-03T13:16:22;0.90;;;0.90;;
4290;SDS011;2159;50.906;7.152;2023-04-03T13:18:50;0.90;;;0.90;;
4290;SDS011;2159;50.906;7.152;2023-04-03T13:21:18;2.50;;;0.97;;
4290;SDS011;2159;50.906;7.152;2023-04-03T13:23:48;1.37;;;0.87;;
4290;SDS011;2159;50.906;7.152;2023-04-03T13:26:24;0.90;;;0.90;;
4290;SDS011;2159;50.906;7.152;2023-04-03T13:28:52;0.90;;;0.90;;
4290;SDS011;2159;50.906;7.152;2023-04-03T13:31:23;2.60;;;1.03;;
4290;SDS011;2159;50.906;7.152;2023-04-03T13:33:53;1.00;;;1.00;;
4290;SDS011;2159;50.906;7.152;2023-04-03T13:36:22;0.97;;;0.97;;
4290;SDS011;2159;50.906;7.152;2023-04-03T13:38:57;1.10;;;1.00;;
4290;SDS011;2159;50.906;7.152;2023-04-03T13:41:25;1.93;;;1.10;;
4290;SDS011;2159;50.906;7.152;2023-04-03T13:43:56;2.90;;;1.10;;
4290;SDS011;2159;50.906;7.152;2023-04-03T13:46:38;2.10;;;1.20;;
4290;SDS011;2159;50.906;7.152;2023-04-03T13:49:16;1.40;;;1.30;;
4290;SDS011;2159;50.906;7.152;2023-04-03T13:51:44;1.03;;;0.90;;
4290;SDS011;2159;50.906;7.152;2023-04-03T13:54:28;2.50;;;1.57;;
4290;SDS011;2159;50.906;7.152;2023-04-03T13:56:57;1.00;;;1.00;;
4290;SDS011;2159;50.906;7.152;2023-04-03T13:59:27;1.50;;;1.10;;
4290;SDS011;2159;50.906;7.152;2023-04-03T14:02:08;1.90;;;0.97;;
4290;SDS011;2159;50.906;7.152;2023-04-03T14:04:45;2.30;;;1.20;;
4290;SDS011;2159;50.906;7.152;2023-04-03T14:07:13;1.37;;;1.23;;
4290;SDS011;2159;50.906;7.152;2023-04-03T14:09:42;1.93;;;0.90;;
4290;SDS011;2159;50.906;7.152;2023-04-03T14:12:12;1.47;;;1.17;;
4290;SDS011;2159;50.906;7.152;2023-04-03T14:14:57;1.30;;;1.20;;
4290;SDS011;2159;50.906;7.152;2023-04-03T14:17:26;1.30;;;1.20;;
4290;SDS011;2159;50.906;7.152;2023-04-03T14:19:54;1.30;;;1.30;;
4290;SDS011;2159;50.906;7.152;2023-04-03T14:22:23;1.50;;;1.40;;
4290;SDS011;2159;50.906;7.152;2023-04-03T14:24:51;3.07;;;1.40;;
4290;SDS011;2159;50.906;7.152;2023-04-03T14:27:20;1.50;;;1.40;;
4290;SDS011;2159;50.906;7.152;2023-04-03T14:29:48;1.40;;;1.30;;
4290;SDS011;2159;50.906;7.152;2023-04-03T14:32:16;1.27;;;1.27;;
4290;SDS011;2159;50.906;7.152;2023-04-03T14:34:45;2.37;;;1.60;;
4290;SDS011;2159;50.906;7.152;2023-04-03T14:37:15;1.43;;;1.03;;
4290;SDS011;2159;50.906;7.152;2023-04-03T14:39:44;1.97;;;1.00;;
4290;SDS011;2159;50.906;7.152;2023-04-03T14:42:12;1.73;;;1.30;;
4290;SDS011;2159;50.906;7.152;2023-04-03T14:44:40;2.50;;;1.40;;
4290;SDS011;2159;50.906;7.152;2023-04-03T14:47:09;1.30;;;1.20;;
4290;SDS011;2159;50.906;7.152;2023-04-03T14:49:50;1.33;;;1.17;;
4290;SDS011;2159;50.906;7.152;2023-04-03T14:52:18;1.07;;;1.00;;
4290;SDS011;2159;50.906;7.152;2023-04-03T14:54:46;1.50;;;1.33;;
4290;SDS011;2159;50.906;7.152;2023-04-03T14:57:14;1.20;;;1.10;;
4290;SDS011;2159;50.906;7.152;2023-04-03T14:59:42;1.30;;;1.20;;
4290;SDS011;2159;50.906;7.152;2023-04-03T15:02:13;0.93;;;0.93;;
4290;SDS011;2159;50.906;7.152;2023-04-03T15:04:49;1.27;;;1.17;;
4290;SDS011;2159;50.906;7.152;2023-04-03T15:07:18;1.80;;;1.20;;
4290;SDS011;2159;50.906;7.152;2023-04-03T15:09:46;1.47;;;1.37;;
4290;SDS011;2159;50.906;7.152;2023-04-03T15:12:13;1.63;;;1.20;;
4290;SDS011;2159;50.906;7.152;2023-04-03T15:14:41;1.40;;;0.90;;
4290;SDS011;2159;50.906;7.152;2023-04-03T15:17:22;1.13;;;1.10;;
4290;SDS011;2159;50.906;7.152;2023-04-03T15:19:51;1.27;;;1.10;;
4290;SDS011;2159;50.906;7.152;2023-04-03T15:22:19;1.50;;;0.93;;
4290;SDS011;2159;50.906;7.152;2023-04-03T15:24:46;1.97;;;1.30;;
4290;SDS011;2159;50.906;7.152;2023-04-03T15:27:14;1.00;;;1.00;;
4290;SDS011;2159;50.906;7.152;2023-04-03T15:29:43;1.30;;;1.20;;
4290;SDS011;2159;50.906;7.152;2023-04-03T15:32:10;1.20;;;1.10;;
4290;SDS011;2159;50.906;7.152;2023-04-03T15:34:39;1.77;;;1.27;;
4290;SDS011;2159;50.906;7.152;2023-04-03T15:37:08;0.90;;;0.90;;
4290;SDS011;2159;50.906;7.152;2023-04-03T15:39:36;1.57;;;1.07;;
4290;SDS011;2159;50.906;7.152;2023-04-03T15:42:03;2.03;;;1.10;;
4290;SDS011;2159;50.906;7.152;2023-04-03T15:44:32;3.50;;;2.60;;
4290;SDS011;2159;50.906;7.152;2023-04-03T15:47:01;0.90;;;0.90;;
4290;SDS011;2159;50.906;7.152;2023-04-03T15:49:29;3.33;;;1.33;;
4290;SDS011;2159;50.906;7.152;2023-04-03T15:51:57;1.43;;;1.30;;
4290;SDS011;2159;50.906;7.152;2023-04-03T15:54:26;1.30;;;1.20;;
4290;SDS011;2159;50.906;7.152;2023-04-03T15:56:55;1.57;;;1.30;;
4290;SDS011;2159;50.906;7.152;2023-04-03T15:59:23;2.30;;;1.20;;
4290;SDS011;2159;50.906;7.152;2023-04-03T16:01:51;2.43;;;0.93;;
4290;SDS011;2159;50.906;7.152;2023-04-03T16:04:19;1.30;;;1.20;;
4290;SDS011;2159;50.906;7.152;2023-04-03T16:06:47;1.13;;;1.10;;
4290;SDS011;2159;50.906;7.152;2023-04-03T16:09:15;1.30;;;1.20;;
4290;SDS011;2159;50.906;7.152;2023-04-03T16:11:44;1.30;;;1.20;;
4290;SDS011;2159;50.906;7.152;2023-04-03T16:14:11;2.70;;;1.30;;
4290;SDS011;2159;50.906;7.152;2023-04-03T16:16:39;1.10;;;0.97;;
4290;SDS011;2159;50.906;7.152;2023-04-03T16:19:06;1.43;;;1.43;;
4290;SDS011;2159;50.906;7.152;2023-04-03T16:21:34;6.43;;;1.50;;
4290;SDS011;2159;50.906;7.152;2023-04-03T16:24:01;0.90;;;0.90;;
4290;SDS011;2159;50.906;7.152;2023-04-03T16:26:29;2.30;;;1.30;;
4290;SDS011;2159;50.906;7.152;2023-04-03T16:28:58;3.77;;;1.77;;
4290;SDS011;2159;50.906;7.152;2023-04-03T16:31:25;1.47;;;1.07;;
4290;SDS011;2159;50.906;7.152;2023-04-03T16:33:54;1.20;;;1.10;;
4290;SDS011;2159;50.906;7.152;2023-04-03T16:36:21;1.27;;;1.17;;
4290;SDS011;2159;50.906;7.152;2023-04-03T16:38:49;1.40;;;1.30;;
4290;SDS011;2159;50.906;7.152;2023-04-03T16:41:17;1.60;;;1.50;;
4290;SDS011;2159;50.906;7.152;2023-04-03T16:43:44;1.20;;;1.10;;
4290;SDS011;2159;50.906;7.152;2023-04-03T16:46:13;4.43;;;1.20;;
4290;SDS011;2159;50.906;7.152;2023-04-03T16:48:41;2.23;;;1.10;;
4290;SDS011;2159;50.906;7.152;2023-04-03T16:51:08;4.50;;;1.30;;
4290;SDS011;2159;50.906;7.152;2023-04-03T16:53:36;1.13;;;1.03;;
4290;SDS011;2159;50.906;7.152;2023-04-03T16:56:05;1.57;;;1.20;;
4290;SDS011;2159;50.906;7.152;2023-04-03T16:58:32;2.03;;;1.20;;
4290;SDS011;2159;50.906;7.152;2023-04-03T17:01:07;1.30;;;1.20;;
4290;SDS011;2159;50.906;7.152;2023-04-03T17:03:36;1.00;;;1.00;;
4290;SDS011;2159;50.906;7.152;2023-04-03T17:06:04;1.30;;;1.20;;